Time;durP1;ratioP1;P1;durP2;ratioP2;P2;SDS_P1;SDS_P2;PMS_P1;PMS_P2;Temp;Humidity;BMP_temperature;BMP_pressure;BME280_temperature;BME280_humidity;BME280_pressure;Samples;Min_cycle;Max_cycle;Signal;HPM_P1;HPM_P2
2021/07/04 00:00:27;;;;;;;12.07;10.90;;;;;;;16.71;96.05;97738.00;4985519;28;20568;-68
2021/07/04 00:02:58;;;;;;;10.67;9.60;;;;;;;16.69;96.35;97735.53;4984177;28;20209;-66
2021/07/04 00:05:29;;;;;;;12.00;11.00;;;;;;;16.66;96.50;97733.28;4982942;28;20585;-68
2021/07/04 00:07:58;;;;;;;12.20;11.07;;;;;;;16.71;95.88;97733.47;4983204;28;20213;-67
2021/07/04 00:10:28;;;;;;;12.70;11.70;;;;;;;16.74;95.32;97734.91;4987385;28;20217;-67
2021/07/04 00:12:57;;;;;;;12.47;11.47;;;;;;;16.73;95.69;97728.72;4985317;28;20215;-67
2021/07/04 00:15:27;;;;;;;12.27;11.17;;;;;;;16.78;95.26;97736.94;4989529;28;20233;-69
2021/07/04 00:17:57;;;;;;;12.60;11.50;;;;;;;16.79;95.60;97735.09;4989622;28;20578;-68
2021/07/04 00:20:25;;;;;;;11.67;10.73;;;;;;;16.78;95.62;97736.13;4986827;28;20321;-68
2021/07/04 00:22:54;;;;;;;12.23;11.07;;;;;;;16.75;95.64;97740.03;4984132;28;20202;-67
2021/07/04 00:25:23;;;;;;;10.83;9.93;;;;;;;16.81;95.95;97738.38;4987447;28;20217;-67
2021/07/04 00:27:52;;;;;;;12.00;11.00;;;;;;;16.92;94.74;97736.91;4984384;28;20214;-67
2021/07/04 00:30:21;;;;;;;14.40;10.50;;;;;;;16.95;94.18;97735.66;4984351;28;20593;-68
2021/07/04 00:32:49;;;;;;;10.33;9.43;;;;;;;16.88;95.65;97741.06;4985143;28;20836;-68
2021/07/04 00:35:20;;;;;;;9.70;9.00;;;;;;;16.90;94.89;97741.66;4981197;28;20225;-67
2021/07/04 00:37:49;;;;;;;10.10;9.23;;;;;;;16.97;94.38;97737.09;4980247;28;20218;-67
2021/07/04 00:40:18;;;;;;;9.63;8.90;;;;;;;16.97;95.42;97734.41;4986678;28;20209;-69
2021/07/04 00:42:46;;;;;;;9.53;8.70;;;;;;;17.00;95.39;97736.72;4986951;28;20230;-66
2021/07/04 00:45:16;;;;;;;10.10;9.30;;;;;;;17.03;96.04;97733.59;4982894;28;20253;-68
2021/07/04 00:47:44;;;;;;;8.77;8.07;;;;;;;17.12;95.54;97728.00;4983791;28;20206;-67
2021/07/04 00:50:13;;;;;;;8.60;8.00;;;;;;;17.08;96.00;97732.97;4984118;28;20200;-67
2021/07/04 00:52:44;;;;;;;9.60;8.83;;;;;;;17.15;95.63;97724.91;4983380;28;20232;-67
2021/07/04 00:55:14;;;;;;;8.83;8.20;;;;;;;17.19;95.45;97728.78;4987146;28;20260;-68
2021/07/04 00:57:44;;;;;;;8.93;8.23;;;;;;;17.23;94.89;97729.19;4991385;28;20210;-69
2021/07/04 01:00:14;;;;;;;8.37;7.67;;;;;;;17.28;94.59;97727.53;4983661;28;20215;-67
2021/07/04 01:02:42;;;;;;;9.10;8.27;;;;;;;17.19;95.85;97721.59;4983234;28;20239;-66
2021/07/04 01:05:13;;;;;;;7.70;7.17;;;;;;;17.15;96.25;97733.75;4980316;28;20225;-67
2021/07/04 01:07:42;;;;;;;8.87;8.07;;;;;;;17.06;96.54;97733.19;4982785;28;20228;-67
2021/07/04 01:10:13;;;;;;;7.60;7.00;;;;;;;17.15;96.35;97733.75;4983244;28;20248;-65
2021/07/04 01:12:43;;;;;;;8.37;7.83;;;;;;;17.18;96.40;97736.00;4982848;28;20210;-67
2021/07/04 01:15:13;;;;;;;8.33;7.73;;;;;;;17.21;96.31;97732.06;4985695;28;20225;-68
2021/07/04 01:17:41;;;;;;;7.77;7.17;;;;;;;17.17;95.95;97725.50;4983617;28;20209;-66
2021/07/04 01:20:11;;;;;;;8.13;7.43;;;;;;;17.13;97.54;97726.97;4985326;28;20583;-67
2021/07/04 01:22:41;;;;;;;8.00;7.40;;;;;;;17.17;96.92;97717.47;4981574;28;20576;-67
2021/07/04 01:25:14;;;;;;;7.37;6.83;;;;;;;17.12;97.41;97722.66;4982810;28;20225;-68
2021/07/04 01:27:42;;;;;;;7.77;7.27;;;;;;;17.10;97.74;97722.03;4982610;28;20201;-67
2021/07/04 01:30:12;;;;;;;7.63;7.03;;;;;;;17.07;98.04;97716.06;4983315;28;20224;-66
2021/07/04 01:32:40;;;;;;;8.33;7.67;;;;;;;17.13;97.92;97719.78;4986379;28;20235;-67
2021/07/04 01:35:09;;;;;;;8.73;8.03;;;;;;;17.09;97.11;97720.41;4993873;28;20673;-66
2021/07/04 01:37:38;;;;;;;8.77;8.07;;;;;;;17.07;97.58;97716.06;4979702;28;20209;-68
2021/07/04 01:40:07;;;;;;;8.60;7.80;;;;;;;17.15;96.63;97715.03;4985476;28;20685;-67
2021/07/04 01:42:39;;;;;;;7.70;7.07;;;;;;;17.14;96.63;97717.91;4983007;28;20225;-67
2021/07/04 01:45:09;;;;;;;7.37;6.67;;;;;;;17.10;97.26;97714.84;4982242;28;20309;-68
2021/07/04 01:47:38;;;;;;;7.77;7.20;;;;;;;17.13;96.94;97718.94;4981446;28;20216;-67
2021/07/04 01:50:10;;;;;;;8.23;7.53;;;;;;;17.09;96.97;97712.38;4982320;28;20238;-68
2021/07/04 01:52:38;;;;;;;8.17;7.47;;;;;;;17.17;96.82;97714.78;4991043;28;20637;-67
2021/07/04 01:55:09;;;;;;;7.23;6.73;;;;;;;17.18;96.07;97719.13;4983210;28;20229;-68
2021/07/04 01:57:39;;;;;;;8.87;8.17;;;;;;;17.20;95.53;97719.72;4993699;28;20225;-68
2021/07/04 02:00:09;;;;;;;7.83;7.23;;;;;;;17.24;94.53;97718.28;4986940;28;20201;-67
2021/07/04 02:02:38;;;;;;;8.17;7.47;;;;;;;17.09;95.67;97713.19;4985517;28;20229;-68
2021/07/04 02:05:08;;;;;;;6.67;6.17;;;;;;;17.08;95.17;97711.56;4983853;28;20228;-67
2021/07/04 02:07:36;;;;;;;6.47;5.97;;;;;;;17.12;95.38;97706.59;4986176;28;20280;-67
2021/07/04 02:10:06;;;;;;;7.87;7.27;;;;;;;17.21;94.13;97706.13;4988823;28;20672;-68
2021/07/04 02:12:34;;;;;;;6.63;6.10;;;;;;;17.22;94.15;97706.94;4987704;28;20328;-67
2021/07/04 02:15:09;;;;;;;7.10;6.60;;;;;;;17.09;95.50;97704.34;4987853;28;20225;-66
2021/07/04 02:17:37;;;;;;;6.93;6.33;;;;;;;17.17;93.85;97702.25;4987679;28;20235;-68
2021/07/04 02:20:29;;;;;;;7.00;6.50;;;;;;;17.15;94.36;97701.63;4989063;28;20206;-67
2021/07/04 02:22:57;;;;;;;7.10;6.40;;;;;;;17.18;93.00;97692.34;4982500;28;20565;-68
2021/07/04 02:25:26;;;;;;;7.83;6.83;;;;;;;17.11;93.64;97700.44;4986359;28;20233;-68
2021/07/04 02:27:54;;;;;;;6.53;6.03;;;;;;;17.14;93.67;97696.47;4988075;28;20239;-67
2021/07/04 02:30:23;;;;;;;6.70;6.20;;;;;;;17.14;93.06;97694.63;4987251;28;20722;-66
2021/07/04 02:32:52;;;;;;;6.50;6.00;;;;;;;17.12;94.30;97694.03;4989854;28;20209;-67
2021/07/04 02:35:20;;;;;;;6.80;6.30;;;;;;;17.05;95.55;97690.56;4988776;28;20615;-67
2021/07/04 02:37:48;;;;;;;6.50;6.00;;;;;;;17.06;95.41;97697.56;4985845;28;20638;-66
2021/07/04 02:40:17;;;;;;;6.20;5.70;;;;;;;16.97;96.95;97690.75;4988380;28;20846;-67
2021/07/04 02:42:45;;;;;;;8.07;7.03;;;;;;;16.92;96.36;97688.75;4985522;28;20240;-66
2021/07/04 02:45:13;;;;;;;6.20;5.70;;;;;;;17.07;94.40;97694.66;4986051;28;20571;-66
2021/07/04 02:47:43;;;;;;;6.20;5.80;;;;;;;16.92;96.41;97689.53;4987060;28;20312;-67
2021/07/04 02:50:12;;;;;;;7.10;5.80;;;;;;;16.86;97.56;97686.91;4987024;28;20229;-66
2021/07/04 02:52:40;;;;;;;6.93;6.43;;;;;;;16.86;98.11;97694.94;4984424;28;20221;-68
2021/07/04 02:55:10;;;;;;;6.23;5.83;;;;;;;16.87;97.83;97693.91;4988495;28;20280;-67
2021/07/04 02:57:38;;;;;;;5.87;5.47;;;;;;;16.84;96.98;97696.97;4985355;28;20585;-67
2021/07/04 03:00:08;;;;;;;5.87;5.47;;;;;;;16.85;95.79;97696.78;4985414;28;20206;-66
2021/07/04 03:02:37;;;;;;;6.80;6.30;;;;;;;16.77;96.55;97692.47;4985442;28;20225;-67
2021/07/04 03:05:09;;;;;;;6.63;6.00;;;;;;;16.73;97.21;97698.50;4982694;28;20237;-68
2021/07/04 03:07:38;;;;;;;6.13;5.70;;;;;;;16.73;96.86;97704.66;4987402;28;20221;-67
2021/07/04 03:10:07;;;;;;;7.07;6.50;;;;;;;16.75;97.02;97699.09;4992929;28;20224;-67
2021/07/04 03:12:35;;;;;;;6.00;5.60;;;;;;;16.73;98.34;97714.53;4983428;28;20209;-67
2021/07/04 03:15:04;;;;;;;6.87;6.23;;;;;;;16.71;98.55;97712.06;4986677;28;20316;-67
2021/07/04 03:17:32;;;;;;;6.90;6.40;;;;;;;16.62;98.96;97718.69;4985114;28;20213;-68
2021/07/04 03:20:01;;;;;;;6.00;5.60;;;;;;;16.68;98.22;97720.50;4985025;28;20231;-67
2021/07/04 03:22:30;;;;;;;6.47;5.97;;;;;;;16.64;98.77;97717.41;4984783;28;20638;-67
2021/07/04 03:24:58;;;;;;;7.13;6.53;;;;;;;16.69;98.32;97721.34;4985138;28;20226;-68
2021/07/04 03:27:26;;;;;;;6.90;6.30;;;;;;;16.66;99.05;97724.41;4991888;28;20618;-67
2021/07/04 03:29:55;;;;;;;7.47;6.77;;;;;;;16.79;98.40;97724.41;4991211;28;20304;-67
2021/07/04 03:32:23;;;;;;;6.83;6.33;;;;;;;16.71;98.95;97720.09;4986360;28;20209;-67
2021/07/04 03:34:51;;;;;;;6.73;6.23;;;;;;;16.68;100.00;97723.19;4984441;28;20706;-68
2021/07/04 03:37:19;;;;;;;7.03;6.43;;;;;;;16.63;100.00;97721.13;4984824;28;20212;-67
2021/07/04 03:39:49;;;;;;;7.07;6.37;;;;;;;16.60;100.00;97718.88;4985243;28;20304;-68
2021/07/04 03:42:17;;;;;;;6.67;6.07;;;;;;;16.47;100.00;97711.69;4984988;28;20212;-68
2021/07/04 03:44:45;;;;;;;6.03;5.63;;;;;;;16.44;100.00;97708.63;4987031;28;20229;-69
2021/07/04 03:47:13;;;;;;;6.93;6.43;;;;;;;16.46;100.00;97715.41;4985410;28;20205;-69
2021/07/04 03:49:41;;;;;;;7.17;6.67;;;;;;;16.33;100.00;97713.59;4987637;28;20234;-68
2021/07/04 03:52:09;;;;;;;7.67;7.00;;;;;;;16.26;100.00;97714.63;4987870;28;20221;-69
2021/07/04 03:54:37;;;;;;;7.37;6.77;;;;;;;16.23;100.00;97713.19;4983633;28;20237;-67
2021/07/04 04:00:06;;;;;;;7.30;6.70;;;;;;;16.16;100.00;97713.22;5107450;27;20571;-69
2021/07/04 04:02:34;;;;;;;7.53;6.93;;;;;;;16.13;100.00;97716.28;5061347;28;20202;-69
2021/07/04 04:05:02;;;;;;;8.10;7.40;;;;;;;16.15;100.00;97716.06;5059570;28;20231;-69
2021/07/04 04:07:30;;;;;;;7.67;7.17;;;;;;;16.17;100.00;97714.00;5052138;28;20215;-69
2021/07/04 04:09:58;;;;;;;8.20;7.40;;;;;;;16.21;100.00;97709.91;5051390;28;20215;-68
2021/07/04 04:12:26;;;;;;;7.23;6.63;;;;;;;16.37;100.00;97715.84;5056381;28;20560;-68
2021/07/04 04:14:54;;;;;;;7.10;6.50;;;;;;;16.41;100.00;97714.41;5052828;28;20228;-68
2021/07/04 04:17:24;;;;;;;8.00;7.40;;;;;;;16.41;100.00;97711.72;5055131;28;20232;-68
2021/07/04 04:19:52;;;;;;;7.63;7.00;;;;;;;16.52;100.00;97720.97;5047548;28;20380;-69
2021/07/04 04:22:20;;;;;;;8.20;7.50;;;;;;;16.51;100.00;97716.66;5057008;28;20203;-69
2021/07/04 04:24:49;;;;;;;7.23;6.80;;;;;;;16.43;100.00;97710.47;5060330;28;20222;-67
2021/07/04 04:27:17;;;;;;;8.40;7.80;;;;;;;16.48;100.00;97712.53;5057265;28;20207;-72
2021/07/04 04:29:45;;;;;;;7.93;7.30;;;;;;;16.52;100.00;97715.63;5062518;28;20216;-73
2021/07/04 04:32:13;;;;;;;8.23;7.53;;;;;;;16.47;100.00;97713.56;5055537;28;20229;-72
2021/07/04 04:34:42;;;;;;;7.83;7.33;;;;;;;16.43;100.00;97718.50;5052717;28;20289;-72
2021/07/04 04:37:10;;;;;;;8.87;7.97;;;;;;;16.50;100.00;97723.84;5056231;28;20219;-68
2021/07/04 04:39:38;;;;;;;8.20;7.47;;;;;;;16.40;100.00;97720.78;5058327;28;20735;-70
2021/07/04 04:42:07;;;;;;;9.57;8.63;;;;;;;16.27;100.00;97725.09;5056647;28;20207;-68
2021/07/04 04:44:35;;;;;;;8.47;7.73;;;;;;;16.37;100.00;97726.56;5062767;28;20314;-68
2021/07/04 04:47:03;;;;;;;7.77;7.27;;;;;;;16.26;100.00;97722.66;5059615;28;20216;-68
2021/07/04 04:49:31;;;;;;;8.77;8.07;;;;;;;16.32;100.00;97717.31;5059215;28;20820;-69
2021/07/04 04:52:01;;;;;;;8.53;7.83;;;;;;;16.36;100.00;97704.31;5057902;28;20225;-68
2021/07/04 04:54:29;;;;;;;8.50;7.80;;;;;;;16.38;100.00;97714.81;5049561;28;20596;-68
2021/07/04 04:57:05;;;;;;;8.80;8.03;;;;;;;16.48;100.00;97712.53;5050414;28;20207;-69
2021/07/04 04:59:34;;;;;;;7.97;7.37;;;;;;;16.56;100.00;97712.31;5060478;28;20664;-68
2021/07/04 05:02:03;;;;;;;8.07;7.47;;;;;;;16.53;100.00;97709.25;5019880;28;20249;-69
2021/07/04 05:04:31;;;;;;;8.03;7.43;;;;;;;16.59;100.00;97708.41;4992963;28;20209;-69
2021/07/04 05:06:59;;;;;;;8.97;8.27;;;;;;;16.59;100.00;97711.06;4997661;28;20221;-69
2021/07/04 05:09:28;;;;;;;8.40;7.70;;;;;;;16.63;100.00;97706.94;4994499;28;20967;-68
2021/07/04 05:11:56;;;;;;;9.57;8.67;;;;;;;16.70;100.00;97706.94;4987856;28;20217;-68
2021/07/04 05:14:24;;;;;;;8.57;7.87;;;;;;;16.64;100.00;97703.25;4988870;28;20711;-68
2021/07/04 05:16:52;;;;;;;8.13;6.97;;;;;;;16.68;100.00;97703.66;4987117;28;20206;-69
2021/07/04 05:19:20;;;;;;;8.57;7.70;;;;;;;16.69;100.00;97700.75;4988936;28;20230;-67
2021/07/04 05:21:48;;;;;;;7.97;7.20;;;;;;;16.83;100.00;97700.69;4982717;28;20237;-68
2021/07/04 05:24:16;;;;;;;7.73;7.03;;;;;;;16.90;100.00;97693.50;4981025;28;20202;-68
2021/07/04 05:26:46;;;;;;;7.77;7.27;;;;;;;16.91;100.00;97695.94;4986561;28;20380;-69
2021/07/04 05:29:13;;;;;;;7.93;7.43;;;;;;;16.91;100.00;97695.94;4988955;28;20232;-69
2021/07/04 05:31:41;;;;;;;9.93;7.43;;;;;;;17.15;100.00;97690.09;4987018;28;20666;-67
2021/07/04 05:34:09;;;;;;;8.70;7.87;;;;;;;17.06;100.00;97693.03;4986770;28;20209;-68
2021/07/04 05:36:37;;;;;;;8.03;7.43;;;;;;;17.14;100.00;97691.97;4982619;28;20206;-69
2021/07/04 05:39:05;;;;;;;7.03;6.53;;;;;;;17.26;100.00;97693.94;4985052;28;20232;-68
2021/07/04 05:41:33;;;;;;;6.83;6.33;;;;;;;17.16;100.00;97689.06;4983490;28;20231;-69
2021/07/04 05:44:03;;;;;;;8.43;7.73;;;;;;;17.25;100.00;97685.13;4986888;28;20213;-68
2021/07/04 05:46:34;;;;;;;8.57;7.57;;;;;;;17.27;100.00;97693.75;4984295;28;20225;-68
2021/07/04 05:49:02;;;;;;;8.37;7.77;;;;;;;17.26;100.00;97693.94;4984269;28;20205;-69
2021/07/04 05:51:30;;;;;;;8.53;7.73;;;;;;;17.35;100.00;97698.00;4985042;28;20285;-70
2021/07/04 05:53:58;;;;;;;7.37;6.77;;;;;;;17.38;100.00;97691.41;4984671;28;20206;-70
2021/07/04 05:56:26;;;;;;;8.67;7.63;;;;;;;17.48;99.83;97697.94;4984173;28;20226;-67
2021/07/04 05:58:54;;;;;;;7.87;7.27;;;;;;;17.57;99.61;97695.81;4976415;28;20278;-68
2021/07/04 06:01:26;;;;;;;9.27;8.57;;;;;;;17.62;99.68;97689.81;4988215;28;20313;-69
2021/07/04 06:03:54;;;;;;;8.03;7.43;;;;;;;17.71;97.77;97690.38;4985687;28;20244;-68
2021/07/04 06:06:22;;;;;;;7.90;7.30;;;;;;;17.85;96.47;97696.47;4987410;28;20226;-68
2021/07/04 06:08:50;;;;;;;8.13;7.53;;;;;;;17.91;96.27;97691.03;4984909;28;20606;-68
2021/07/04 06:11:18;;;;;;;7.57;7.07;;;;;;;17.81;94.93;97696.06;4982610;28;20216;-67
2021/07/04 06:13:46;;;;;;;8.10;7.40;;;;;;;17.87;94.59;97689.81;4981453;28;20220;-68
2021/07/04 06:16:14;;;;;;;7.93;7.33;;;;;;;17.90;94.66;97693.94;4978521;28;20276;-68
2021/07/04 06:18:44;;;;;;;7.67;7.07;;;;;;;18.11;93.57;97691.94;4978499;28;20362;-68
2021/07/04 06:21:13;;;;;;;7.60;6.90;;;;;;;18.04;93.01;97689.31;4977469;28;20316;-68
2021/07/04 06:23:40;;;;;;;7.40;6.83;;;;;;;18.11;92.95;97684.72;4982063;28;20214;-68
2021/07/04 06:26:08;;;;;;;9.60;8.10;;;;;;;18.22;93.51;97678.63;4980245;28;20222;-68
2021/07/04 06:28:41;;;;;;;7.43;6.93;;;;;;;18.27;91.42;97682.50;4979383;28;20205;-68
2021/07/04 06:31:09;;;;;;;8.10;7.50;;;;;;;18.55;90.60;97681.19;4987189;28;20206;-71
2021/07/04 06:33:37;;;;;;;7.10;6.60;;;;;;;18.63;90.93;97680.88;4982421;28;20206;-72
2021/07/04 06:36:06;;;;;;;7.40;6.80;;;;;;;18.54;91.45;97680.34;4985085;28;20241;-72
2021/07/04 06:38:34;;;;;;;7.37;6.87;;;;;;;18.62;89.37;97679.25;4983350;28;20369;-72
2021/07/04 06:41:05;;;;;;;7.50;6.70;;;;;;;18.67;88.97;97679.38;4980163;28;20656;-72
2021/07/04 06:43:33;;;;;;;7.20;6.60;;;;;;;18.72;88.89;97682.22;4983179;28;20485;-72
2021/07/04 06:46:01;;;;;;;6.97;6.47;;;;;;;18.83;87.82;97679.84;4983251;28;20229;-72
2021/07/04 06:48:30;;;;;;;7.57;7.07;;;;;;;19.06;86.76;97674.59;4984072;28;20221;-72
2021/07/04 06:50:58;;;;;;;7.20;6.50;;;;;;;19.12;86.21;97682.78;4985223;28;20206;-72
2021/07/04 06:53:28;;;;;;;8.83;7.07;;;;;;;19.27;85.38;97682.38;4981289;28;20515;-73
2021/07/04 06:55:56;;;;;;;7.50;6.73;;;;;;;19.23;85.15;97680.16;4983201;28;20236;-73
2021/07/04 06:58:24;;;;;;;7.57;6.83;;;;;;;19.38;85.33;97676.25;4985149;28;20678;-71
2021/07/04 07:00:52;;;;;;;7.13;6.63;;;;;;;19.42;85.61;97674.75;4981001;28;20237;-71
2021/07/04 07:03:20;;;;;;;7.23;6.73;;;;;;;19.54;84.45;97669.41;4985344;28;20233;-72
2021/07/04 07:05:48;;;;;;;7.33;6.73;;;;;;;19.42;84.38;97665.84;4985539;28;20225;-72
2021/07/04 07:08:15;;;;;;;8.03;6.47;;;;;;;19.33;84.03;97670.75;4982872;28;20231;-73
2021/07/04 07:10:45;;;;;;;7.73;6.67;;;;;;;19.52;83.95;97666.13;4985575;28;20598;-69
2021/07/04 07:13:14;;;;;;;7.37;6.87;;;;;;;19.44;84.10;97667.28;4984772;28;20206;-68
2021/07/04 07:15:42;;;;;;;7.63;7.10;;;;;;;19.53;82.78;97673.16;4982054;28;20280;-70
2021/07/04 07:18:10;;;;;;;5.90;5.50;;;;;;;19.70;82.40;97662.56;4986117;28;20202;-70
2021/07/04 07:20:38;;;;;;;6.30;5.80;;;;;;;19.91;80.48;97669.28;4981761;28;20230;-68
2021/07/04 07:23:06;;;;;;;6.23;5.67;;;;;;;20.08;80.26;97671.25;4983495;28;20709;-67
2021/07/04 07:25:35;;;;;;;6.07;5.63;;;;;;;20.20;80.33;97666.69;4984746;28;20224;-68
2021/07/04 07:28:04;;;;;;;7.60;6.90;;;;;;;20.13;80.36;97662.50;4977976;28;20205;-69
2021/07/04 07:30:33;;;;;;;6.93;6.37;;;;;;;20.39;79.64;97658.50;4983203;28;20279;-68
2021/07/04 07:33:02;;;;;;;7.00;6.37;;;;;;;20.50;79.57;97659.53;4984385;28;20201;-69
2021/07/04 07:35:31;;;;;;;7.47;6.90;;;;;;;20.56;78.25;97658.59;4983079;28;20901;-69
2021/07/04 07:38:02;;;;;;;7.10;6.60;;;;;;;20.80;76.68;97654.00;4982987;28;20220;-68
2021/07/04 07:40:30;;;;;;;6.90;6.30;;;;;;;20.80;76.82;97643.22;4983378;28;20233;-71
2021/07/04 07:42:59;;;;;;;6.93;6.33;;;;;;;20.85;76.55;97639.81;4981528;28;20220;-70
2021/07/04 07:45:28;;;;;;;7.47;6.87;;;;;;;20.81;76.57;97639.47;4982087;28;20237;-70
2021/07/04 07:47:56;;;;;;;7.53;7.03;;;;;;;21.04;74.92;97632.38;4982448;28;20216;-69
2021/07/04 07:50:32;;;;;;;8.20;7.27;;;;;;;20.87;76.44;97631.47;4983393;28;20208;-70
2021/07/04 07:53:00;;;;;;;7.50;6.90;;;;;;;21.06;76.27;97635.63;4980141;28;20594;-70
2021/07/04 07:55:28;;;;;;;7.27;6.67;;;;;;;21.00;75.04;97630.38;4982706;28;20226;-69
2021/07/04 07:57:56;;;;;;;6.70;6.20;;;;;;;21.09;73.17;97628.94;4983046;28;20716;-70
2021/07/04 08:00:24;;;;;;;7.03;6.53;;;;;;;20.94;74.71;97624.91;4982561;28;20237;-70
2021/07/04 08:02:54;;;;;;;8.37;7.63;;;;;;;21.02;75.19;97633.66;4983567;28;20559;-70
2021/07/04 08:05:22;;;;;;;9.63;8.70;;;;;;;20.96;76.93;97630.88;4981734;28;20225;-69
2021/07/04 08:07:50;;;;;;;7.07;6.47;;;;;;;21.17;74.99;97620.44;4980264;28;20202;-72
2021/07/04 08:10:18;;;;;;;7.70;7.00;;;;;;;21.02;74.87;97620.19;4976210;28;20209;-72
2021/07/04 08:12:46;;;;;;;7.80;7.03;;;;;;;21.01;75.34;97627.44;4976558;28;20206;-72
2021/07/04 08:15:14;;;;;;;7.33;6.77;;;;;;;21.23;75.32;97624.91;4975978;28;20241;-73
2021/07/04 08:17:43;;;;;;;6.57;6.13;;;;;;;21.16;75.49;97624.22;4979713;28;20229;-71
2021/07/04 08:20:15;;;;;;;7.50;7.00;;;;;;;21.11;73.81;97610.66;4983276;28;20260;-71
2021/07/04 08:22:43;;;;;;;6.60;6.00;;;;;;;21.29;72.37;97612.31;4970345;28;20212;-71
2021/07/04 08:25:13;;;;;;;7.23;6.73;;;;;;;21.31;71.84;97610.19;4984549;28;20225;-72
2021/07/04 08:27:41;;;;;;;7.57;7.03;;;;;;;21.51;71.27;97608.91;4983826;28;20232;-70
2021/07/04 08:30:12;;;;;;;7.13;6.53;;;;;;;21.72;70.79;97609.25;4985184;28;20209;-72
2021/07/04 08:32:40;;;;;;;6.53;5.93;;;;;;;21.74;72.08;97596.34;4983718;28;21070;-71
2021/07/04 08:35:10;;;;;;;6.33;5.93;;;;;;;21.68;69.58;97592.78;4982625;28;20226;-72
2021/07/04 08:37:39;;;;;;;6.83;6.13;;;;;;;21.78;69.04;97586.69;4981232;28;20689;-71
2021/07/04 08:40:09;;;;;;;6.67;6.17;;;;;;;21.87;66.37;97593.31;4983125;28;20228;-71
2021/07/04 08:42:37;;;;;;;6.93;6.33;;;;;;;21.64;69.40;97591.63;4979145;28;20214;-72
2021/07/04 08:45:06;;;;;;;6.93;6.33;;;;;;;21.72;71.89;97582.28;4981877;28;20248;-71
2021/07/04 08:47:34;;;;;;;9.57;8.80;;;;;;;21.78;70.92;97584.00;4986506;28;20210;-71
2021/07/04 08:50:04;;;;;;;9.07;8.37;;;;;;;21.87;69.82;97590.63;4985115;28;20750;-71
2021/07/04 08:52:33;;;;;;;5.43;5.13;;;;;;;22.10;66.44;97583.38;4981523;28;20205;-71
2021/07/04 08:55:02;;;;;;;5.83;5.30;;;;;;;22.46;63.74;97591.97;4978063;28;20340;-73
2021/07/04 08:57:30;;;;;;;6.37;5.90;;;;;;;22.39;65.13;97588.63;4985289;28;20205;-70
2021/07/04 08:59:58;;;;;;;6.60;6.10;;;;;;;22.55;65.72;97585.09;4986860;28;20232;-71
2021/07/04 09:02:31;;;;;;;6.10;5.43;;;;;;;23.09;63.26;97596.16;4986655;28;20249;-69
2021/07/04 09:05:01;;;;;;;6.47;5.83;;;;;;;23.85;61.13;97584.34;4987864;28;20236;-68
2021/07/04 09:07:30;;;;;;;5.90;5.40;;;;;;;24.09;59.50;97581.28;4988548;28;20302;-71
2021/07/04 09:09:59;;;;;;;5.40;5.00;;;;;;;24.08;55.94;97579.66;4986211;28;21069;-71
2021/07/04 09:12:40;;;;;;;5.07;4.77;;;;;;;24.26;54.59;97583.03;4984974;28;20210;-71
2021/07/04 09:15:11;;;;;;;5.67;5.23;;;;;;;24.25;54.10;97574.06;4978100;28;20257;-72
2021/07/04 09:17:41;;;;;;;5.07;4.77;;;;;;;24.21;54.09;97578.38;4982540;28;21352;-70
2021/07/04 09:20:12;;;;;;;5.80;5.30;;;;;;;24.17;54.53;97569.16;4979970;28;20280;-71
2021/07/04 09:22:42;;;;;;;5.17;4.87;;;;;;;23.95;55.49;97564.69;4982610;28;20229;-72
2021/07/04 09:25:14;;;;;;;11.53;10.60;;;;;;;23.52;58.39;97567.38;4979528;28;20240;-72
2021/07/04 09:28:00;;;;;;;10.70;9.90;;;;;;;23.38;58.26;97561.59;4979447;28;20614;-72
2021/07/04 09:30:33;;;;;;;10.07;9.37;;;;;;;23.31;59.86;97569.13;4980259;28;20205;-71
2021/07/04 09:33:10;;;;;;;6.53;6.13;;;;;;;23.51;59.84;97551.41;4983487;28;20314;-71
2021/07/04 09:35:39;;;;;;;5.77;5.47;;;;;;;23.06;59.47;97561.53;4987058;28;20228;-71
2021/07/04 09:38:15;;;;;;;6.20;5.70;;;;;;;22.87;60.36;97552.97;4983264;28;20685;-72
2021/07/04 09:40:43;;;;;;;6.23;5.77;;;;;;;23.23;60.08;97553.31;4976888;28;20215;-70
2021/07/04 09:43:17;;;;;;;6.20;5.80;;;;;;;23.14;60.78;97550.28;4973802;28;20256;-71
2021/07/04 09:45:51;;;;;;;6.13;5.53;;;;;;;23.84;59.23;97550.25;4978230;28;20241;-72
2021/07/04 09:48:21;;;;;;;5.50;5.10;;;;;;;24.17;54.10;97552.94;4980514;28;20206;-72
2021/07/04 09:50:51;;;;;;;5.93;5.43;;;;;;;24.17;54.90;97552.94;4983543;28;20213;-72
2021/07/04 09:53:20;;;;;;;5.90;5.50;;;;;;;23.94;54.82;97552.22;4981546;28;20206;-70
2021/07/04 09:55:51;;;;;;;5.97;5.57;;;;;;;23.96;53.11;97544.66;4985259;28;20280;-71
2021/07/04 09:58:21;;;;;;;6.20;5.70;;;;;;;24.39;53.74;97549.22;4988607;28;20244;-71
2021/07/04 10:00:49;;;;;;;6.20;5.70;;;;;;;24.45;54.43;97542.75;4981690;28;20214;-68
2021/07/04 10:03:19;;;;;;;6.23;5.83;;;;;;;24.50;54.72;97537.34;4978423;28;20427;-70
2021/07/04 10:06:03;;;;;;;5.70;5.20;;;;;;;24.60;53.53;97533.84;4980902;28;20236;-70
2021/07/04 10:08:33;;;;;;;6.27;5.77;;;;;;;24.37;55.00;97529.72;4975767;28;20234;-71
2021/07/04 10:11:04;;;;;;;6.17;5.67;;;;;;;24.68;53.61;97524.38;4976925;28;20306;-70
2021/07/04 10:13:37;;;;;;;5.30;4.80;;;;;;;24.36;54.21;97530.78;4976571;28;20208;-71
2021/07/04 10:16:06;;;;;;;5.00;4.70;;;;;;;24.54;53.15;97522.19;4976160;28;20643;-70
2021/07/04 10:18:36;;;;;;;5.60;5.20;;;;;;;24.95;52.53;97526.88;4988429;28;20739;-71
2021/07/04 10:21:04;;;;;;;5.53;5.13;;;;;;;24.80;52.67;97522.25;4984475;28;20233;-70
2021/07/04 10:23:32;;;;;;;5.00;4.53;;;;;;;24.81;49.90;97510.38;4984354;28;20205;-70
2021/07/04 10:26:01;;;;;;;5.17;4.83;;;;;;;24.77;48.90;97511.97;4985981;28;20232;-71
2021/07/04 10:28:31;;;;;;;4.80;4.40;;;;;;;25.01;49.40;97506.03;4985589;28;20213;-71
2021/07/04 10:31:02;;;;;;;4.87;4.57;;;;;;;24.88;51.58;97504.66;4986697;28;20218;-70
2021/07/04 10:33:34;;;;;;;4.90;4.60;;;;;;;24.98;51.58;97512.00;4986545;28;20218;-72
2021/07/04 10:36:07;;;;;;;5.10;4.70;;;;;;;24.78;50.20;97499.25;4983202;28;20229;-71
2021/07/04 10:38:57;;;;;;;5.30;5.00;;;;;;;24.27;51.37;97504.22;4984600;28;20208;-71
2021/07/04 10:41:28;;;;;;;6.00;5.60;;;;;;;24.30;53.18;97502.91;4984956;28;20206;-72
2021/07/04 10:44:06;;;;;;;5.00;4.70;;;;;;;24.25;54.83;97495.56;4985137;28;20209;-71
2021/07/04 10:47:07;;;;;;;4.87;4.57;;;;;;;23.95;55.92;97502.44;4986208;28;20228;-71
2021/07/04 10:49:40;;;;;;;5.27;4.93;;;;;;;23.65;56.34;97498.50;4979824;28;20621;-72
2021/07/04 10:52:11;;;;;;;4.93;4.60;;;;;;;23.93;56.18;97491.06;4981111;28;20218;-71
2021/07/04 10:55:00;;;;;;;5.50;5.10;;;;;;;24.02;55.79;97496.81;4979343;28;20608;-71
2021/07/04 10:57:33;;;;;;;4.90;4.60;;;;;;;23.99;56.22;97495.41;4980510;28;20210;-71
2021/07/04 11:00:22;;;;;;;5.73;5.33;;;;;;;23.76;57.42;97490.44;4982768;28;20296;-71
2021/07/04 11:02:54;;;;;;;5.40;5.10;;;;;;;23.40;59.31;97483.75;4982381;28;20239;-71
2021/07/04 11:05:44;;;;;;;5.20;4.80;;;;;;;23.60;58.81;97489.56;4984498;28;20624;-70
2021/07/04 11:08:13;;;;;;;6.30;5.70;;;;;;;23.24;62.20;97490.94;4980754;28;20224;-70
2021/07/04 11:10:52;;;;;;;8.27;7.57;;;;;;;22.60;67.82;97494.41;4984650;28;20210;-71
2021/07/04 11:13:45;;;;;;;7.27;6.67;;;;;;;21.73;76.54;97495.78;4986326;28;20617;-70
2021/07/04 11:16:22;;;;;;;6.17;5.67;;;;;;;20.69;84.73;97495.97;4985542;28;20284;-68
2021/07/04 11:18:56;;;;;;;5.40;5.00;;;;;;;19.88;89.74;97492.22;4983747;28;20216;-69
2021/07/04 11:21:25;;;;;;;5.07;4.67;;;;;;;19.61;90.83;97489.22;4986328;28;20221;-71
2021/07/04 11:24:17;;;;;;;4.63;4.23;;;;;;;19.18;92.90;97488.53;4986015;28;20240;-71
2021/07/04 11:27:31;;;;;;;3.90;3.60;;;;;;;18.96;93.79;97481.00;4982996;28;20209;-71
2021/07/04 11:30:25;;;;;;;6.13;4.03;;;;;;;18.66;98.35;97488.03;4961779;28;20621;-71
2021/07/04 11:33:32;;;;;;;4.13;3.80;;;;;;;18.47;100.00;97481.91;4984454;28;20213;-70
2021/07/04 11:36:06;;;;;;;3.80;3.50;;;;;;;18.39;100.00;97460.78;4982582;28;20736;-71
2021/07/04 11:38:37;;;;;;;3.87;3.57;;;;;;;18.50;100.00;97451.13;4985918;28;20200;-69
2021/07/04 11:41:06;;;;;;;3.77;3.57;;;;;;;18.55;99.18;97453.13;4986607;28;20205;-70
2021/07/04 11:43:35;;;;;;;8.07;7.40;;;;;;;18.64;97.73;97441.00;4985625;28;20232;-71
2021/07/04 11:46:05;;;;;;;12.83;11.53;;;;;;;18.84;94.37;97447.94;4985357;28;20236;-70
2021/07/04 11:48:53;;;;;;;4.77;4.47;;;;;;;18.97;94.85;97444.22;4982527;28;20205;-71